createdAt,value
2022-10-18T00:00:06.935Z,67.20
2022-10-18T00:02:35.125Z,67.20
2022-10-18T00:05:01.959Z,67.20
2022-10-18T00:07:29.074Z,67.20
2022-10-18T00:09:56.113Z,67.20
2022-10-18T00:12:22.786Z,67.20
2022-10-18T00:14:51.066Z,67.50
2022-10-18T00:17:18.175Z,67.70
2022-10-18T00:19:46.451Z,67.90
2022-10-18T00:22:13.397Z,69.00
2022-10-18T00:24:40.123Z,68.90
2022-10-18T00:27:07.056Z,68.40
2022-10-18T00:29:33.989Z,67.90
2022-10-18T00:32:00.721Z,67.80
2022-10-18T00:34:27.479Z,67.60
2022-10-18T00:36:55.044Z,67.60
2022-10-18T00:39:22.535Z,67.50
2022-10-18T00:41:50.272Z,67.50
2022-10-18T00:44:16.997Z,67.50
2022-10-18T00:46:46.625Z,67.50
2022-10-18T00:49:21.507Z,67.50
2022-10-18T00:52:00.862Z,67.50
2022-10-18T00:54:29.811Z,67.50
2022-10-18T00:56:56.874Z,67.50
2022-10-18T00:59:24.184Z,67.50
2022-10-18T01:01:51.384Z,67.50
2022-10-18T01:04:20.367Z,67.50
2022-10-18T01:07:04.477Z,67.50
2022-10-18T01:09:37.080Z,67.50
2022-10-18T01:12:35.228Z,67.30
2022-10-18T01:15:01.942Z,67.30
2022-10-18T01:18:00.428Z,67.10
2022-10-18T01:20:35.983Z,67.40
2022-10-18T01:23:15.731Z,67.30
2022-10-18T01:26:00.349Z,67.40
2022-10-18T01:28:46.148Z,67.40
2022-10-18T01:31:21.567Z,67.50
2022-10-18T01:33:57.886Z,67.20
2022-10-18T01:36:32.555Z,67.10
2022-10-18T01:39:02.855Z,67.20
2022-10-18T01:41:29.972Z,67.40
2022-10-18T01:44:00.723Z,67.40
2022-10-18T01:46:29.239Z,67.40
2022-10-18T01:48:57.827Z,67.50
2022-10-18T01:51:26.565Z,67.30
2022-10-18T01:53:53.848Z,67.30
2022-10-18T01:56:46.175Z,67.20
2022-10-18T01:59:40.484Z,67.10
2022-10-18T02:02:29.032Z,67.20
2022-10-18T02:05:22.690Z,67.00
2022-10-18T02:08:05.333Z,67.10
2022-10-18T02:10:49.751Z,67.10
2022-10-18T02:13:20.118Z,67.30
2022-10-18T02:15:50.472Z,67.20
2022-10-18T02:18:23.565Z,67.30
2022-10-18T02:20:51.720Z,67.30
2022-10-18T02:23:22.185Z,67.40
2022-10-18T02:25:49.101Z,67.50
2022-10-18T02:28:15.979Z,67.40
2022-10-18T02:30:57.657Z,67.30
2022-10-18T02:33:34.253Z,67.40
2022-10-18T02:36:06.975Z,67.30
2022-10-18T02:38:34.453Z,67.40
2022-10-18T02:41:02.005Z,67.20
2022-10-18T02:43:28.764Z,67.20
2022-10-18T02:45:55.609Z,67.20
2022-10-18T02:48:22.390Z,67.30
2022-10-18T02:50:49.192Z,67.30
2022-10-18T02:53:15.913Z,67.40
2022-10-18T02:55:42.628Z,67.60
2022-10-18T02:58:09.327Z,67.50
2022-10-18T03:00:36.028Z,67.40
2022-10-18T03:03:02.811Z,67.50
2022-10-18T03:05:29.528Z,67.40
2022-10-18T03:07:59.126Z,67.50
2022-10-18T03:10:25.889Z,67.50
2022-10-18T03:12:52.592Z,67.40
2022-10-18T03:15:19.357Z,67.30
2022-10-18T03:17:46.164Z,67.10
2022-10-18T03:20:13.817Z,67.20
2022-10-18T03:22:40.633Z,67.10
2022-10-18T03:25:07.681Z,67.00
2022-10-18T03:27:34.586Z,67.00
2022-10-18T03:30:01.551Z,66.90
2022-10-18T03:32:28.242Z,66.90
2022-10-18T03:34:55.118Z,66.90
2022-10-18T03:37:22.387Z,66.90
2022-10-18T03:39:49.123Z,66.90
2022-10-18T03:42:15.904Z,66.90
2022-10-18T03:44:42.604Z,67.00
2022-10-18T03:47:09.449Z,67.00
2022-10-18T03:49:36.143Z,67.00
2022-10-18T03:52:02.956Z,67.00
2022-10-18T03:54:30.259Z,66.90
2022-10-18T03:56:57.067Z,66.90
2022-10-18T03:59:23.791Z,66.90
2022-10-18T04:01:50.602Z,66.90
2022-10-18T04:04:17.731Z,66.90
2022-10-18T04:06:44.515Z,67.00
2022-10-18T04:09:11.340Z,67.00
2022-10-18T04:11:38.162Z,67.00
2022-10-18T04:14:04.927Z,67.20
2022-10-18T04:16:31.694Z,67.10
2022-10-18T04:18:58.516Z,67.20
2022-10-18T04:21:25.260Z,67.10
2022-10-18T04:23:52.030Z,67.20
2022-10-18T04:26:19.076Z,67.20
2022-10-18T04:28:46.012Z,67.20
2022-10-18T04:31:12.849Z,67.00
2022-10-18T04:33:39.651Z,66.90
2022-10-18T04:36:06.668Z,66.80
2022-10-18T04:38:33.405Z,66.90
2022-10-18T04:41:00.163Z,66.80
2022-10-18T04:43:26.907Z,66.70
2022-10-18T04:45:53.686Z,66.70
2022-10-18T04:48:20.790Z,66.70
2022-10-18T04:50:51.334Z,66.80
2022-10-18T04:53:18.472Z,66.90
2022-10-18T04:55:47.716Z,66.90
2022-10-18T04:58:14.882Z,66.90
2022-10-18T05:00:42.087Z,66.80
2022-10-18T05:03:09.796Z,66.80
2022-10-18T05:05:49.586Z,66.80
2022-10-18T05:08:17.055Z,66.80
2022-10-18T05:10:43.809Z,67.00
2022-10-18T05:13:10.529Z,67.00
2022-10-18T05:15:37.289Z,67.00
2022-10-18T05:18:04.120Z,67.00
2022-10-18T05:20:30.922Z,67.00
2022-10-18T05:22:58.319Z,67.00
2022-10-18T05:25:25.116Z,67.00
2022-10-18T05:27:51.786Z,67.00
2022-10-18T05:30:18.652Z,66.80
2022-10-18T05:32:45.349Z,66.80
2022-10-18T05:35:12.123Z,66.80
2022-10-18T05:37:39.253Z,66.80
2022-10-18T05:40:06.507Z,66.70
2022-10-18T05:42:33.516Z,66.60
2022-10-18T05:45:00.336Z,66.60
2022-10-18T05:47:27.143Z,66.60
2022-10-18T05:49:53.995Z,66.60
2022-10-18T05:52:20.777Z,66.70
2022-10-18T05:54:47.460Z,66.70
2022-10-18T05:57:14.148Z,66.80
2022-10-18T05:59:40.896Z,66.80
2022-10-18T06:02:09.940Z,66.80
2022-10-18T06:04:36.847Z,66.70
2022-10-18T06:07:07.555Z,66.70
2022-10-18T06:09:34.280Z,66.70
2022-10-18T06:12:01.006Z,66.60
2022-10-18T06:14:27.817Z,66.60
2022-10-18T06:16:56.419Z,66.50
2022-10-18T06:19:23.884Z,66.30
2022-10-18T06:21:50.759Z,66.30
2022-10-18T06:24:18.417Z,66.30
2022-10-18T06:26:45.256Z,66.40
2022-10-18T06:29:11.961Z,66.20
2022-10-18T06:31:38.743Z,66.20
2022-10-18T06:34:05.625Z,66.20
2022-10-18T06:36:32.499Z,66.20
2022-10-18T06:38:59.989Z,66.00
2022-10-18T06:41:26.925Z,66.00
2022-10-18T06:43:56.891Z,66.00
2022-10-18T06:46:24.769Z,66.10
2022-10-18T06:48:51.596Z,66.10
2022-10-18T06:51:18.463Z,66.00
2022-10-18T06:53:59.318Z,65.90
2022-10-18T06:56:31.998Z,65.80
2022-10-18T07:01:30.577Z,66.00
2022-10-18T07:03:57.410Z,66.00
2022-10-18T07:06:24.575Z,66.10
2022-10-18T07:08:53.996Z,66.20
2022-10-18T07:11:24.341Z,66.30
2022-10-18T07:13:54.065Z,66.30
2022-10-18T07:16:21.268Z,66.20
2022-10-18T07:18:50.600Z,66.30
2022-10-18T07:21:19.643Z,66.40
2022-10-18T07:23:47.155Z,66.50
2022-10-18T07:26:16.728Z,66.60
2022-10-18T07:28:45.422Z,66.60
2022-10-18T07:31:13.097Z,66.20
2022-10-18T07:33:40.279Z,65.60
2022-10-18T07:36:09.032Z,64.90
2022-10-18T07:38:36.254Z,64.10
2022-10-18T07:41:04.688Z,62.80
2022-10-18T07:43:31.531Z,61.40
2022-10-18T07:46:00.580Z,60.20
2022-10-18T07:48:27.712Z,59.50
2022-10-18T07:50:54.926Z,60.20
2022-10-18T07:53:21.746Z,59.60
2022-10-18T07:55:48.552Z,60.20
2022-10-18T07:58:15.342Z,60.80
2022-10-18T08:00:42.063Z,61.50
2022-10-18T08:03:08.815Z,62.10
2022-10-18T08:05:35.581Z,62.50
2022-10-18T08:08:04.410Z,62.80
2022-10-18T08:10:35.518Z,63.20
2022-10-18T08:13:02.275Z,63.90
2022-10-18T08:15:28.996Z,64.00
2022-10-18T08:17:55.704Z,64.40
2022-10-18T08:20:31.168Z,64.60
2022-10-18T08:23:00.498Z,64.90
2022-10-18T08:25:28.549Z,65.10
2022-10-18T08:27:55.360Z,65.30
2022-10-18T08:30:23.470Z,65.60
2022-10-18T08:32:50.161Z,65.80
2022-10-18T08:35:16.967Z,66.20
2022-10-18T08:37:45.314Z,66.40
2022-10-18T08:40:15.942Z,66.40
2022-10-18T08:43:02.209Z,66.50
2022-10-18T08:45:41.896Z,66.70
2022-10-18T08:48:22.850Z,66.60
2022-10-18T08:50:51.370Z,66.90
2022-10-18T08:53:18.048Z,66.90
2022-10-18T08:56:15.947Z,67.00
2022-10-18T08:58:46.304Z,67.10
2022-10-18T09:01:29.961Z,67.00
2022-10-18T09:04:24.499Z,67.00
2022-10-18T09:07:06.385Z,66.90
2022-10-18T09:09:39.093Z,66.80
2022-10-18T09:12:40.446Z,66.90
2022-10-18T09:15:24.204Z,67.20
2022-10-18T09:18:05.929Z,67.10
2022-10-18T09:20:43.656Z,67.20
2022-10-18T09:23:16.463Z,67.20
2022-10-18T09:25:56.106Z,67.10
2022-10-18T09:28:48.974Z,67.20
2022-10-18T09:31:46.082Z,67.10
2022-10-18T09:34:23.960Z,67.00
2022-10-18T09:36:52.433Z,66.80
2022-10-18T09:39:28.353Z,66.90
2022-10-18T09:42:03.308Z,66.90
2022-10-18T09:44:40.581Z,66.90
2022-10-18T09:47:21.239Z,67.00
2022-10-18T09:49:56.782Z,67.10
2022-10-18T09:52:48.507Z,66.90
2022-10-18T09:55:38.441Z,67.00
2022-10-18T09:58:07.997Z,66.70
2022-10-18T10:00:48.916Z,66.20
2022-10-18T10:03:15.951Z,66.40
2022-10-18T10:05:43.715Z,65.40
2022-10-18T10:08:11.662Z,65.40
2022-10-18T10:10:47.515Z,65.10
2022-10-18T10:13:17.227Z,64.60
2022-10-18T10:16:03.148Z,63.90
2022-10-18T10:18:33.240Z,64.00
2022-10-18T10:21:03.116Z,63.60
2022-10-18T10:23:31.622Z,62.10
2022-10-18T10:26:05.082Z,62.20
2022-10-18T10:28:36.867Z,62.00
2022-10-18T10:31:27.054Z,61.90
2022-10-18T10:34:12.540Z,61.70
2022-10-18T10:36:49.014Z,61.40
2022-10-18T10:39:19.053Z,60.90
2022-10-18T10:41:53.955Z,60.60
2022-10-18T10:44:26.452Z,59.90
2022-10-18T10:46:54.884Z,59.70
2022-10-18T10:49:41.171Z,60.20
2022-10-18T10:52:27.238Z,60.30
2022-10-18T10:55:23.512Z,60.80
2022-10-18T10:57:52.199Z,59.70
2022-10-18T11:00:38.536Z,59.60
2022-10-18T11:03:27.298Z,60.10
2022-10-18T11:05:57.851Z,60.10
2022-10-18T11:08:38.151Z,60.10
2022-10-18T11:11:23.080Z,59.00
2022-10-18T11:17:16.486Z,59.20
2022-10-18T11:19:59.968Z,59.20
2022-10-18T11:22:31.314Z,59.00
2022-10-18T11:24:58.146Z,58.70
2022-10-18T11:27:35.764Z,58.30
2022-10-18T11:30:32.602Z,59.10
2022-10-18T11:33:17.351Z,58.70
2022-10-18T11:36:03.534Z,57.90
2022-10-18T11:38:56.405Z,57.90
2022-10-18T11:41:44.354Z,57.90
2022-10-18T11:44:32.926Z,57.70
2022-10-18T11:47:18.523Z,57.00
2022-10-18T11:49:52.680Z,57.00
2022-10-18T11:52:40.951Z,57.30
2022-10-18T11:55:32.795Z,57.00
2022-10-18T11:58:05.842Z,56.90
2022-10-18T12:00:41.329Z,55.70
2022-10-18T12:03:14.140Z,55.90
2022-10-18T12:05:44.528Z,55.60
2022-10-18T12:08:23.340Z,56.00
2022-10-18T12:11:08.947Z,54.70
2022-10-18T12:13:50.368Z,55.00
2022-10-18T12:16:33.545Z,54.80
2022-10-18T12:19:15.646Z,55.50
2022-10-18T12:21:43.593Z,55.20
2022-10-18T12:24:20.649Z,55.20
2022-10-18T12:26:51.792Z,54.50
2022-10-18T12:29:46.646Z,54.50
2022-10-18T12:32:22.143Z,54.70
2022-10-18T12:34:49.023Z,53.10
2022-10-18T12:37:21.667Z,51.20
2022-10-18T12:40:24.311Z,52.80
2022-10-18T12:42:53.318Z,54.30
2022-10-18T12:45:22.812Z,52.50
2022-10-18T12:47:49.650Z,53.00
2022-10-18T12:50:28.298Z,53.50
2022-10-18T12:53:09.568Z,53.20
2022-10-18T12:55:39.402Z,52.60
2022-10-18T12:58:15.476Z,52.30
2022-10-18T13:00:42.264Z,52.80
2022-10-18T13:03:09.129Z,53.00
2022-10-18T13:05:53.322Z,53.50
2022-10-18T13:08:30.437Z,54.10
2022-10-18T13:11:09.424Z,52.40
2022-10-18T13:14:05.655Z,52.90
2022-10-18T13:16:46.781Z,53.50
2022-10-18T13:19:28.540Z,53.30
2022-10-18T13:22:15.652Z,53.50
2022-10-18T13:25:04.336Z,53.50
2022-10-18T13:27:48.207Z,53.60
2022-10-18T13:30:32.991Z,53.40
2022-10-18T13:33:28.520Z,52.20
2022-10-18T13:36:22.515Z,52.50
2022-10-18T13:38:57.615Z,53.30
2022-10-18T13:41:29.256Z,53.50
2022-10-18T13:44:40.233Z,54.10
2022-10-18T13:47:07.109Z,53.30
2022-10-18T13:49:39.759Z,52.40
2022-10-18T13:52:15.406Z,52.20
2022-10-18T13:55:09.765Z,53.90
2022-10-18T13:57:45.218Z,53.10
2022-10-18T14:00:27.231Z,53.10
2022-10-18T14:03:44.406Z,53.00
2022-10-18T14:06:37.331Z,52.00
2022-10-18T14:09:13.776Z,51.70
2022-10-18T14:12:10.917Z,50.10
2022-10-18T14:14:54.199Z,50.70
2022-10-18T14:17:28.296Z,51.10
2022-10-18T14:20:29.303Z,51.40
2022-10-18T14:23:01.724Z,51.70
2022-10-18T14:25:31.582Z,51.80
2022-10-18T14:28:16.164Z,52.10
2022-10-18T14:31:07.408Z,52.30
2022-10-18T14:33:44.023Z,52.90
2022-10-18T14:36:36.037Z,52.70
2022-10-18T14:39:05.890Z,53.20
2022-10-18T14:41:49.303Z,52.70
2022-10-18T14:44:15.976Z,52.60
2022-10-18T14:46:49.484Z,52.40
2022-10-18T14:49:17.948Z,52.90
2022-10-18T14:51:47.487Z,52.50
2022-10-18T14:54:22.309Z,53.40
2022-10-18T14:56:50.990Z,53.80
2022-10-18T14:59:19.097Z,53.10
2022-10-18T15:02:09.751Z,52.70
2022-10-18T15:04:36.475Z,51.90
2022-10-18T15:07:07.791Z,52.20
2022-10-18T15:09:36.903Z,51.90
2022-10-18T15:12:06.611Z,51.10
2022-10-18T15:14:34.729Z,50.60
2022-10-18T15:17:22.237Z,51.60
2022-10-18T15:20:17.624Z,52.00
2022-10-18T15:22:46.762Z,51.40
2022-10-18T15:25:18.254Z,50.90
2022-10-18T15:27:51.299Z,51.50
2022-10-18T15:30:30.106Z,51.50
2022-10-18T15:32:59.690Z,51.60
2022-10-18T15:35:28.248Z,52.00
2022-10-18T15:37:57.472Z,51.80
2022-10-18T15:40:24.256Z,51.60
2022-10-18T15:42:52.944Z,51.40
2022-10-18T15:45:25.269Z,52.10
2022-10-18T15:48:09.261Z,52.10
2022-10-18T15:50:53.252Z,52.70
2022-10-18T15:53:24.576Z,52.60
2022-10-18T15:56:29.992Z,53.10
2022-10-18T15:58:58.733Z,52.50
2022-10-18T16:01:36.427Z,51.80
2022-10-18T16:04:21.595Z,52.00
2022-10-18T16:06:48.712Z,52.80
2022-10-18T16:09:20.638Z,53.00
2022-10-18T16:11:55.597Z,53.90
2022-10-18T16:14:24.386Z,54.20
2022-10-18T16:16:56.327Z,55.10
2022-10-18T16:19:23.084Z,55.20
2022-10-18T16:21:51.744Z,55.40
2022-10-18T16:24:19.393Z,55.50
2022-10-18T16:26:46.699Z,55.80
2022-10-18T16:29:24.388Z,56.50
2022-10-18T16:31:51.574Z,56.80
2022-10-18T16:34:18.540Z,57.30
2022-10-18T16:36:45.678Z,57.40
2022-10-18T16:39:18.145Z,57.50
2022-10-18T16:41:45.652Z,58.10
2022-10-18T16:44:12.880Z,58.20
2022-10-18T16:46:40.876Z,58.50
2022-10-18T16:49:17.072Z,58.80
2022-10-18T16:51:43.808Z,58.60
2022-10-18T16:54:10.516Z,58.90
2022-10-18T16:56:37.380Z,58.90
2022-10-18T16:59:04.325Z,59.90
2022-10-18T17:01:31.219Z,59.30
2022-10-18T17:03:58.004Z,59.40
2022-10-18T17:06:28.140Z,60.00
2022-10-18T17:08:56.007Z,59.40
2022-10-18T17:11:26.717Z,59.60
2022-10-18T17:13:53.633Z,59.90
2022-10-18T17:16:32.751Z,59.90
2022-10-18T17:19:02.323Z,60.00
2022-10-18T17:21:30.553Z,60.00
2022-10-18T17:24:05.886Z,60.10
2022-10-18T17:26:33.474Z,60.20
2022-10-18T17:29:08.294Z,60.20
2022-10-18T17:31:35.624Z,60.20
2022-10-18T17:34:02.901Z,60.20
2022-10-18T17:36:31.262Z,60.20
2022-10-18T17:38:58.474Z,60.20
2022-10-18T17:41:25.296Z,60.40
2022-10-18T17:43:52.012Z,60.60
2022-10-18T17:46:19.432Z,60.70
2022-10-18T17:48:46.212Z,60.80
2022-10-18T17:51:15.847Z,60.90
2022-10-18T17:53:42.880Z,60.80
2022-10-18T17:56:11.266Z,60.80
2022-10-18T17:58:38.293Z,60.70
2022-10-18T18:01:17.616Z,60.60
2022-10-18T18:03:44.992Z,60.30
2022-10-18T18:06:19.975Z,60.60
2022-10-18T18:08:48.137Z,60.70
2022-10-18T18:11:16.136Z,60.60
2022-10-18T18:13:42.919Z,60.80
2022-10-18T18:16:19.357Z,61.10
2022-10-18T18:18:48.772Z,61.30
2022-10-18T18:21:15.732Z,61.10
2022-10-18T18:23:42.521Z,61.30
2022-10-18T18:26:09.765Z,61.10
2022-10-18T18:28:37.038Z,60.60
2022-10-18T18:31:12.381Z,60.70
2022-10-18T18:33:39.110Z,60.80
2022-10-18T18:36:06.717Z,61.10
2022-10-18T18:38:34.877Z,61.50
2022-10-18T18:41:12.932Z,61.50
2022-10-18T18:43:42.108Z,61.70
2022-10-18T18:46:08.884Z,61.50
2022-10-18T18:48:36.206Z,61.50
2022-10-18T18:51:05.208Z,61.30
2022-10-18T18:53:32.505Z,61.30
2022-10-18T18:56:22.589Z,61.10
2022-10-18T18:58:49.839Z,61.40
2022-10-18T19:01:19.717Z,61.40
2022-10-18T19:03:49.050Z,61.50
2022-10-18T19:06:19.337Z,61.50
2022-10-18T19:08:46.886Z,61.50
2022-10-18T19:11:19.371Z,61.60
2022-10-18T19:13:46.922Z,61.50
2022-10-18T19:16:25.124Z,61.40
2022-10-18T19:18:54.877Z,61.30
2022-10-18T19:21:23.074Z,61.20
2022-10-18T19:23:50.290Z,61.40
2022-10-18T19:26:26.724Z,61.70
2022-10-18T19:28:53.730Z,61.80
2022-10-18T19:31:20.547Z,61.70
2022-10-18T19:33:58.986Z,61.70
2022-10-18T19:36:26.888Z,61.70
2022-10-18T19:38:53.581Z,61.70
2022-10-18T19:41:20.365Z,61.90
2022-10-18T19:43:47.315Z,61.50
2022-10-18T19:46:14.017Z,61.30
2022-10-18T19:48:40.704Z,61.30
2022-10-18T19:51:09.544Z,61.40
2022-10-18T19:53:37.052Z,61.60
2022-10-18T19:56:05.693Z,61.70
2022-10-18T19:58:33.036Z,61.90
2022-10-18T20:01:00.457Z,61.90
2022-10-18T20:03:30.330Z,61.70
2022-10-18T20:06:02.369Z,61.70
2022-10-18T20:08:32.337Z,62.30
2022-10-18T20:11:09.554Z,61.80
2022-10-18T20:13:37.407Z,61.70
2022-10-18T20:16:07.026Z,61.70
2022-10-18T20:18:33.777Z,61.70
2022-10-18T20:21:03.495Z,61.70
2022-10-18T20:23:32.291Z,62.00
2022-10-18T20:26:08.342Z,61.60
2022-10-18T20:28:35.216Z,61.40
2022-10-18T20:31:03.499Z,61.60
2022-10-18T20:33:30.934Z,61.50
2022-10-18T20:36:02.898Z,61.40
2022-10-18T20:38:31.930Z,61.60
2022-10-18T20:41:03.531Z,61.60
2022-10-18T20:43:30.284Z,62.30
2022-10-18T20:46:00.349Z,61.50
2022-10-18T20:48:28.024Z,61.50
2022-10-18T20:50:54.852Z,61.20
2022-10-18T20:53:24.920Z,60.70
2022-10-18T20:55:51.660Z,60.70
2022-10-18T20:58:18.414Z,60.70
2022-10-18T21:00:45.179Z,60.80
2022-10-18T21:05:43.504Z,61.00
2022-10-18T21:08:10.302Z,61.00
2022-10-18T21:10:37.041Z,61.00
2022-10-18T21:13:03.762Z,61.00
2022-10-18T21:15:32.639Z,60.80
2022-10-18T21:17:59.328Z,60.50
2022-10-18T21:20:26.019Z,60.10
2022-10-18T21:22:53.908Z,60.10
2022-10-18T21:25:20.628Z,60.10
2022-10-18T21:27:47.556Z,60.40
2022-10-18T21:30:14.623Z,60.60
2022-10-18T21:32:41.332Z,60.70
2022-10-18T21:35:08.393Z,60.60
2022-10-18T21:37:35.151Z,60.40
2022-10-18T21:40:01.945Z,60.10
2022-10-18T21:42:28.628Z,60.10
2022-10-18T21:44:55.332Z,60.10
2022-10-18T21:47:22.046Z,60.20
2022-10-18T21:49:48.727Z,60.10
2022-10-18T21:52:16.537Z,60.30
2022-10-18T21:54:43.256Z,60.20
2022-10-18T21:57:09.972Z,60.20
2022-10-18T21:59:36.726Z,59.90
2022-10-18T22:02:03.584Z,59.70
2022-10-18T22:04:35.627Z,59.60
2022-10-18T22:07:04.780Z,59.70
2022-10-18T22:09:31.927Z,59.70
2022-10-18T22:11:59.139Z,59.60
2022-10-18T22:14:25.900Z,59.70
2022-10-18T22:16:52.617Z,59.70
2022-10-18T22:19:19.599Z,59.90
2022-10-18T22:21:46.384Z,60.00
2022-10-18T22:24:13.094Z,60.00
2022-10-18T22:26:41.740Z,60.10
2022-10-18T22:29:20.508Z,60.30
2022-10-18T22:31:53.020Z,60.60
2022-10-18T22:34:27.391Z,60.60
2022-10-18T22:36:54.323Z,60.20
2022-10-18T22:39:21.324Z,59.60
2022-10-18T22:41:52.019Z,59.50
2022-10-18T22:44:18.747Z,59.60
2022-10-18T22:46:45.491Z,59.50
2022-10-18T22:49:12.684Z,59.70
2022-10-18T22:51:39.769Z,59.80
2022-10-18T22:54:06.540Z,60.00
2022-10-18T22:56:33.224Z,60.20
2022-10-18T22:58:59.932Z,60.20
2022-10-18T23:01:26.790Z,60.20
2022-10-18T23:03:58.119Z,60.50
2022-10-18T23:06:33.072Z,60.60
2022-10-18T23:09:01.682Z,60.60
2022-10-18T23:11:29.015Z,60.40
2022-10-18T23:13:55.739Z,60.40
2022-10-18T23:16:23.199Z,60.40
2022-10-18T23:18:55.501Z,60.30
2022-10-18T23:21:24.407Z,60.20
2022-10-18T23:23:52.348Z,60.00
2022-10-18T23:26:22.179Z,59.80
2022-10-18T23:28:50.890Z,60.00
2022-10-18T23:31:21.942Z,60.40
2022-10-18T23:33:50.755Z,60.50
2022-10-18T23:36:17.657Z,60.50
2022-10-18T23:38:44.544Z,60.80
2022-10-18T23:41:13.209Z,60.80
2022-10-18T23:43:40.579Z,60.70
2022-10-18T23:46:07.946Z,60.70
2022-10-18T23:48:35.151Z,60.60
2022-10-18T23:51:03.015Z,60.70
2022-10-18T23:53:30.624Z,60.50
2022-10-18T23:56:00.286Z,60.10
2022-10-18T23:58:28.642Z,60.00
